createdAt,value
2023-01-31T00:00:30.579Z,3.30
2023-01-31T00:01:36.173Z,3.32
2023-01-31T00:02:38.891Z,3.25
2023-01-31T00:03:43.455Z,3.20
2023-01-31T00:04:46.072Z,3.18
2023-01-31T00:05:48.594Z,3.19
2023-01-31T00:06:52.313Z,3.19
2023-01-31T00:07:55.675Z,3.22
2023-01-31T00:08:59.751Z,3.34
2023-01-31T00:10:02.423Z,3.36
2023-01-31T00:11:05.035Z,3.38
2023-01-31T00:12:07.806Z,3.41
2023-01-31T00:13:10.438Z,3.46
2023-01-31T00:14:19.562Z,3.48
2023-01-31T00:15:22.352Z,3.46
2023-01-31T00:16:25.929Z,3.47
2023-01-31T00:17:28.928Z,3.46
2023-01-31T00:18:31.938Z,3.54
2023-01-31T00:19:34.924Z,3.52
2023-01-31T00:20:38.634Z,3.50
2023-01-31T00:21:44.050Z,3.53
2023-01-31T00:22:47.173Z,3.56
2023-01-31T00:23:51.137Z,3.58
2023-01-31T00:24:54.257Z,3.55
2023-01-31T00:26:10.592Z,3.62
2023-01-31T00:27:13.829Z,3.56
2023-01-31T00:28:16.943Z,3.59
2023-01-31T00:29:20.065Z,3.57
2023-01-31T00:30:23.191Z,3.61
2023-01-31T00:31:29.280Z,3.64
2023-01-31T00:32:32.551Z,3.77
2023-01-31T00:33:39.511Z,3.83
2023-01-31T00:34:42.638Z,3.75
2023-01-31T00:35:48.636Z,3.82
2023-01-31T00:36:51.759Z,3.89
2023-01-31T00:37:55.121Z,3.92
2023-01-31T00:38:59.926Z,3.94
2023-01-31T00:40:03.187Z,3.90
2023-01-31T00:41:06.886Z,3.95
2023-01-31T00:42:10.007Z,3.93
2023-01-31T00:43:13.249Z,3.93
2023-01-31T00:44:16.849Z,3.95
2023-01-31T00:45:20.342Z,3.99
2023-01-31T00:46:26.723Z,3.99
2023-01-31T00:47:29.950Z,3.98
2023-01-31T00:48:33.304Z,4.02
2023-01-31T00:49:36.960Z,4.00
2023-01-31T00:50:40.501Z,3.99
2023-01-31T00:51:45.181Z,3.99
2023-01-31T00:52:48.448Z,4.04
2023-01-31T00:53:52.264Z,4.05
2023-01-31T00:54:55.867Z,4.03
2023-01-31T00:56:08.228Z,4.07
2023-01-31T00:57:11.713Z,4.03
2023-01-31T00:58:14.598Z,4.05
2023-01-31T00:59:17.354Z,4.11
2023-01-31T01:00:20.722Z,4.11
2023-01-31T01:01:29.004Z,4.16
2023-01-31T01:02:32.005Z,4.13
2023-01-31T01:03:35.407Z,4.13
2023-01-31T01:04:38.125Z,4.10
2023-01-31T01:05:41.370Z,4.07
2023-01-31T01:06:44.059Z,4.04
2023-01-31T01:07:47.736Z,4.02
2023-01-31T01:08:50.369Z,4.03
2023-01-31T01:09:54.587Z,4.06
2023-01-31T01:10:57.867Z,4.07
2023-01-31T01:12:00.406Z,4.06
2023-01-31T01:13:05.915Z,3.98
2023-01-31T01:14:08.542Z,3.95
2023-01-31T01:15:11.305Z,3.92
2023-01-31T01:16:20.225Z,3.96
2023-01-31T01:17:22.701Z,3.95
2023-01-31T01:18:25.341Z,3.92
2023-01-31T01:19:27.869Z,3.92
2023-01-31T01:20:31.182Z,3.91
2023-01-31T01:21:39.189Z,3.94
2023-01-31T01:22:42.883Z,3.85
2023-01-31T01:23:47.392Z,3.84
2023-01-31T01:24:49.945Z,3.83
2023-01-31T01:25:52.487Z,3.87
2023-01-31T01:26:57.399Z,3.87
2023-01-31T01:28:00.032Z,3.86
2023-01-31T01:29:04.091Z,3.89
2023-01-31T01:30:07.960Z,3.93
2023-01-31T01:31:12.715Z,3.93
2023-01-31T01:32:17.115Z,3.94
2023-01-31T01:33:19.714Z,3.98
2023-01-31T01:34:22.232Z,4.06
2023-01-31T01:35:24.756Z,4.07
2023-01-31T01:36:28.356Z,4.06
2023-01-31T01:37:31.299Z,4.10
2023-01-31T01:38:38.089Z,4.13
2023-01-31T01:39:41.077Z,4.09
2023-01-31T01:40:46.484Z,4.12
2023-01-31T01:41:51.280Z,4.08
2023-01-31T01:42:53.932Z,4.05
2023-01-31T01:43:59.812Z,4.13
2023-01-31T01:45:05.586Z,4.09
2023-01-31T01:46:11.249Z,4.03
2023-01-31T01:47:43.082Z,4.11
2023-01-31T01:48:48.771Z,4.06
2023-01-31T01:49:57.885Z,4.04
2023-01-31T01:51:04.009Z,4.07
2023-01-31T01:52:10.488Z,4.10
2023-01-31T01:53:18.299Z,4.10
2023-01-31T01:54:28.562Z,4.09
2023-01-31T01:55:40.378Z,4.07
2023-01-31T01:56:46.140Z,4.09
2023-01-31T01:57:52.498Z,4.08
2023-01-31T01:59:07.134Z,4.12
2023-01-31T02:00:36.655Z,4.16
2023-01-31T02:01:40.855Z,4.15
2023-01-31T02:02:47.456Z,4.13
2023-01-31T02:03:53.224Z,4.13
2023-01-31T02:04:55.749Z,4.09
2023-01-31T02:06:04.388Z,4.19
2023-01-31T02:07:09.192Z,4.10
2023-01-31T02:08:16.026Z,4.06
2023-01-31T02:09:47.111Z,4.06
2023-01-31T02:10:58.629Z,4.08
2023-01-31T02:12:01.271Z,3.98
2023-01-31T02:13:04.877Z,3.96
2023-01-31T02:14:10.645Z,3.96
2023-01-31T02:15:13.406Z,3.89
2023-01-31T02:16:16.541Z,3.87
2023-01-31T02:17:20.006Z,3.84
2023-01-31T02:18:24.567Z,3.81
2023-01-31T02:19:46.176Z,3.80
2023-01-31T02:21:00.806Z,3.76
2023-01-31T02:22:17.487Z,3.74
2023-01-31T02:23:32.131Z,3.71
2023-01-31T02:24:44.611Z,3.70
2023-01-31T02:26:23.634Z,3.64
2023-01-31T02:27:55.907Z,3.67
2023-01-31T02:29:17.381Z,3.67
2023-01-31T02:30:48.021Z,3.66
2023-01-31T02:32:00.259Z,3.58
2023-01-31T02:33:12.949Z,3.56
2023-01-31T02:34:20.990Z,3.54
2023-01-31T02:35:24.634Z,3.50
2023-01-31T02:36:39.834Z,3.56
2023-01-31T02:38:03.118Z,3.50
2023-01-31T02:39:26.567Z,3.51
2023-01-31T02:40:48.959Z,3.55
2023-01-31T02:42:05.282Z,3.48
2023-01-31T02:43:26.763Z,3.52
2023-01-31T02:45:00.614Z,3.54
2023-01-31T02:46:15.658Z,3.49
2023-01-31T02:47:51.024Z,3.50
2023-01-31T02:49:06.494Z,3.45
2023-01-31T02:50:34.697Z,3.45
2023-01-31T02:52:08.296Z,3.48
2023-01-31T02:53:33.037Z,3.49
2023-01-31T02:54:56.805Z,3.45
2023-01-31T02:56:20.653Z,3.48
2023-01-31T02:57:24.153Z,3.42
2023-01-31T02:58:31.588Z,3.48
2023-01-31T02:59:36.732Z,3.38
2023-01-31T03:00:45.556Z,3.40
2023-01-31T03:02:02.397Z,3.44
2023-01-31T03:03:18.793Z,3.44
2023-01-31T03:04:22.554Z,3.39
2023-01-31T03:05:26.123Z,3.41
2023-01-31T03:06:29.135Z,3.37
2023-01-31T03:07:35.689Z,3.41
2023-01-31T03:08:43.129Z,3.41
2023-01-31T03:10:20.734Z,3.42
2023-01-31T03:11:31.422Z,3.39
2023-01-31T03:13:11.625Z,3.40
2023-01-31T03:14:31.252Z,3.36
2023-01-31T03:16:41.304Z,3.32
2023-01-31T03:18:11.460Z,3.28
2023-01-31T03:19:34.542Z,3.28
2023-01-31T03:20:44.466Z,3.22
2023-01-31T03:21:53.342Z,3.32
2023-01-31T03:23:04.151Z,3.31
2023-01-31T03:24:08.509Z,3.26
2023-01-31T03:25:13.669Z,3.23
2023-01-31T03:26:20.905Z,3.22
2023-01-31T03:27:24.831Z,3.19
2023-01-31T03:28:33.112Z,3.23
2023-01-31T03:29:38.775Z,3.20
2023-01-31T03:30:57.351Z,3.26
2023-01-31T03:32:07.163Z,3.24
2023-01-31T03:33:17.153Z,3.26
2023-01-31T03:34:20.292Z,3.25
2023-01-31T03:35:27.808Z,3.30
2023-01-31T03:36:50.879Z,3.37
2023-01-31T03:38:14.523Z,3.37
2023-01-31T03:39:46.779Z,3.36
2023-01-31T03:40:58.079Z,3.37
2023-01-31T03:42:13.570Z,3.36
2023-01-31T03:43:31.829Z,3.38
2023-01-31T03:44:56.668Z,3.37
2023-01-31T03:46:06.627Z,3.33
2023-01-31T03:47:17.978Z,3.38
2023-01-31T03:48:22.928Z,3.36
2023-01-31T03:49:27.844Z,3.37
2023-01-31T03:50:38.763Z,3.38
2023-01-31T03:51:52.571Z,3.42
2023-01-31T03:53:05.530Z,3.41
2023-01-31T03:54:19.077Z,3.40
2023-01-31T03:55:55.454Z,3.40
2023-01-31T03:57:08.776Z,3.41
2023-01-31T03:58:14.266Z,3.42
2023-01-31T03:59:22.946Z,3.41
2023-01-31T04:00:27.255Z,3.42
2023-01-31T04:01:36.028Z,3.48
2023-01-31T04:02:39.529Z,3.43
2023-01-31T04:04:04.575Z,3.48
2023-01-31T04:05:10.936Z,3.46
2023-01-31T04:06:17.177Z,3.42
2023-01-31T04:07:20.433Z,3.42
2023-01-31T04:08:22.944Z,3.40
2023-01-31T04:09:34.705Z,3.47
2023-01-31T04:10:37.354Z,3.52
2023-01-31T04:11:42.147Z,3.50
2023-01-31T04:12:45.630Z,3.46
2023-01-31T04:13:48.276Z,3.50
2023-01-31T04:14:51.060Z,3.50
2023-01-31T04:15:53.820Z,3.55
2023-01-31T04:16:56.458Z,3.55
2023-01-31T04:17:59.200Z,3.58
2023-01-31T04:19:01.848Z,3.76
2023-01-31T04:20:06.171Z,3.70
2023-01-31T04:21:10.668Z,3.71
2023-01-31T04:22:13.503Z,3.68
2023-01-31T04:23:16.254Z,3.65
2023-01-31T04:24:18.889Z,3.67
2023-01-31T04:25:22.238Z,3.72
2023-01-31T04:26:25.543Z,3.69
2023-01-31T04:27:28.614Z,3.68
2023-01-31T04:28:32.147Z,3.70
2023-01-31T04:29:35.221Z,3.77
2023-01-31T04:30:38.699Z,3.77
2023-01-31T04:31:41.911Z,3.75
2023-01-31T04:32:45.062Z,3.79
2023-01-31T04:33:48.188Z,3.84
2023-01-31T04:34:51.306Z,3.80
2023-01-31T04:35:54.671Z,3.81
2023-01-31T04:36:57.808Z,3.78
2023-01-31T04:38:00.907Z,3.80
2023-01-31T04:39:04.167Z,3.79
2023-01-31T04:40:08.639Z,3.85
2023-01-31T04:41:11.972Z,3.85
2023-01-31T04:42:15.085Z,3.85
2023-01-31T04:43:18.209Z,3.86
2023-01-31T04:44:21.444Z,3.80
2023-01-31T04:45:24.565Z,3.76
2023-01-31T04:46:27.886Z,3.77
2023-01-31T04:47:31.046Z,3.74
2023-01-31T04:48:34.289Z,3.79
2023-01-31T04:49:37.529Z,3.79
2023-01-31T04:50:40.650Z,3.78
2023-01-31T04:51:43.892Z,3.74
2023-01-31T04:52:51.337Z,3.79
2023-01-31T04:53:54.700Z,3.75
2023-01-31T04:54:57.938Z,3.71
2023-01-31T04:56:01.308Z,3.75
2023-01-31T04:57:04.805Z,3.75
2023-01-31T04:58:08.769Z,3.74
2023-01-31T04:59:12.227Z,3.69
2023-01-31T05:00:15.830Z,3.73
2023-01-31T05:01:19.239Z,3.73
2023-01-31T05:02:23.811Z,3.77
2023-01-31T05:03:26.998Z,3.79
2023-01-31T05:04:30.114Z,3.75
2023-01-31T05:05:36.349Z,3.77
2023-01-31T05:06:39.365Z,3.82
2023-01-31T05:07:43.205Z,3.82
2023-01-31T05:08:45.961Z,3.74
2023-01-31T05:09:48.964Z,3.75
2023-01-31T05:10:58.567Z,3.85
2023-01-31T05:12:01.325Z,3.84
2023-01-31T05:13:04.036Z,3.83
2023-01-31T05:14:07.018Z,3.88
2023-01-31T05:15:11.901Z,3.86
2023-01-31T05:16:14.745Z,3.85
2023-01-31T05:17:17.534Z,3.88
2023-01-31T05:18:20.224Z,3.89
2023-01-31T05:19:22.818Z,3.93
2023-01-31T05:20:25.385Z,3.90
2023-01-31T05:21:28.103Z,3.88
2023-01-31T05:22:31.311Z,3.93
2023-01-31T05:23:34.225Z,3.99
2023-01-31T05:24:37.266Z,3.98
2023-01-31T05:25:39.919Z,3.99
2023-01-31T05:26:42.532Z,3.98
2023-01-31T05:27:45.272Z,4.00
2023-01-31T05:28:48.190Z,4.00
2023-01-31T05:29:50.834Z,4.02
2023-01-31T05:30:54.199Z,4.02
2023-01-31T05:31:59.059Z,4.10
2023-01-31T05:33:01.845Z,4.04
2023-01-31T05:34:04.481Z,4.07
2023-01-31T05:35:07.405Z,4.10
2023-01-31T05:36:10.008Z,4.10
2023-01-31T05:37:12.930Z,4.11
2023-01-31T05:38:16.071Z,4.13
2023-01-31T05:39:18.799Z,4.14
2023-01-31T05:40:22.289Z,4.17
2023-01-31T05:41:24.919Z,4.20
2023-01-31T05:42:27.677Z,4.23
2023-01-31T05:43:30.323Z,4.20
2023-01-31T05:44:33.541Z,4.27
2023-01-31T05:45:36.117Z,4.25
2023-01-31T05:46:38.850Z,4.28
2023-01-31T05:47:41.363Z,4.31
2023-01-31T05:48:43.885Z,4.29
2023-01-31T05:49:46.406Z,4.31
2023-01-31T05:50:50.865Z,4.36
2023-01-31T05:51:53.368Z,4.41
2023-01-31T05:52:59.848Z,4.42
2023-01-31T05:54:02.878Z,4.41
2023-01-31T05:55:06.209Z,4.44
2023-01-31T05:56:08.737Z,4.42
2023-01-31T05:57:11.375Z,4.45
2023-01-31T05:58:14.013Z,4.43
2023-01-31T05:59:16.533Z,4.47
2023-01-31T06:00:19.549Z,4.49
2023-01-31T06:01:24.092Z,4.52
2023-01-31T06:02:26.794Z,4.45
2023-01-31T06:03:29.277Z,4.50
2023-01-31T06:04:32.138Z,4.48
2023-01-31T06:05:34.775Z,4.50
2023-01-31T06:06:37.901Z,4.55
2023-01-31T06:07:41.388Z,4.57
2023-01-31T06:08:43.925Z,4.59
2023-01-31T06:09:46.427Z,4.64
2023-01-31T06:10:48.947Z,4.61
2023-01-31T06:11:51.464Z,4.63
2023-01-31T06:12:53.992Z,4.67
2023-01-31T06:13:58.581Z,4.71
2023-01-31T06:15:01.203Z,4.72
2023-01-31T06:16:03.963Z,4.69
2023-01-31T06:17:06.474Z,4.69
2023-01-31T06:18:09.115Z,4.70
2023-01-31T06:19:11.641Z,4.75
2023-01-31T06:20:14.429Z,4.86
2023-01-31T06:21:17.039Z,4.94
2023-01-31T06:22:20.648Z,4.93
2023-01-31T06:23:23.525Z,4.96
2023-01-31T06:24:26.284Z,5.00
2023-01-31T06:25:28.929Z,5.07
2023-01-31T06:26:32.050Z,5.16
2023-01-31T06:27:35.071Z,5.12
2023-01-31T06:28:38.174Z,5.10
2023-01-31T06:29:40.932Z,5.09
2023-01-31T06:30:44.322Z,5.06
2023-01-31T06:31:47.445Z,5.08
2023-01-31T06:32:50.423Z,5.15
2023-01-31T06:33:53.300Z,5.16
2023-01-31T06:34:56.318Z,5.20
2023-01-31T06:36:03.265Z,5.24
2023-01-31T06:37:10.480Z,5.25
2023-01-31T06:38:13.607Z,5.15
2023-01-31T06:39:16.710Z,5.17
2023-01-31T06:40:19.832Z,5.14
2023-01-31T06:41:23.071Z,5.17
2023-01-31T06:42:26.314Z,5.14
2023-01-31T06:43:29.436Z,5.15
2023-01-31T06:44:33.755Z,5.17
2023-01-31T06:45:38.199Z,5.18
2023-01-31T06:46:41.445Z,5.20
2023-01-31T06:47:47.588Z,5.26
2023-01-31T06:48:50.683Z,5.23
2023-01-31T06:49:53.805Z,5.24
2023-01-31T06:50:57.888Z,5.20
2023-01-31T06:52:01.011Z,5.15
2023-01-31T06:53:04.268Z,5.21
2023-01-31T06:54:07.379Z,5.23
2023-01-31T06:55:11.935Z,5.20
2023-01-31T06:56:15.057Z,5.19
2023-01-31T06:57:18.061Z,5.16
2023-01-31T06:58:21.301Z,5.15
2023-01-31T06:59:24.429Z,5.14
2023-01-31T07:00:27.783Z,5.18
2023-01-31T07:01:31.479Z,5.20
2023-01-31T07:02:35.128Z,5.19
2023-01-31T07:03:38.472Z,5.17
2023-01-31T07:04:41.917Z,5.19
2023-01-31T07:05:46.635Z,5.22
2023-01-31T07:06:49.753Z,5.19
2023-01-31T07:07:53.714Z,5.15
2023-01-31T07:08:56.720Z,5.16
2023-01-31T07:09:59.720Z,5.18
2023-01-31T07:11:03.329Z,5.20
2023-01-31T07:12:06.212Z,5.18
2023-01-31T07:13:08.854Z,5.18
2023-01-31T07:14:11.365Z,5.15
2023-01-31T07:15:14.128Z,5.16
2023-01-31T07:16:17.516Z,5.17
2023-01-31T07:17:21.330Z,5.15
2023-01-31T07:18:24.214Z,5.18
2023-01-31T07:19:27.096Z,5.16
2023-01-31T07:20:30.507Z,5.20
2023-01-31T07:21:36.148Z,5.21
2023-01-31T07:22:39.219Z,5.22
2023-01-31T07:23:42.507Z,5.22
2023-01-31T07:24:45.348Z,5.21
2023-01-31T07:25:48.105Z,5.23
2023-01-31T07:26:55.294Z,5.26
2023-01-31T07:27:58.113Z,5.24
2023-01-31T07:29:00.870Z,5.24
2023-01-31T07:30:03.715Z,5.23
2023-01-31T07:31:11.097Z,5.26
2023-01-31T07:32:14.314Z,5.25
2023-01-31T07:33:17.291Z,5.26
2023-01-31T07:34:23.154Z,5.25
2023-01-31T07:35:25.844Z,5.28
2023-01-31T07:36:29.045Z,5.33
2023-01-31T07:37:32.209Z,5.34
2023-01-31T07:38:35.647Z,5.37
2023-01-31T07:39:38.407Z,5.34
2023-01-31T07:40:40.959Z,5.38
2023-01-31T07:41:43.451Z,5.36
2023-01-31T07:42:46.239Z,5.38
2023-01-31T07:43:49.111Z,5.39
2023-01-31T07:44:51.819Z,5.43
2023-01-31T07:45:54.532Z,5.47
2023-01-31T07:46:57.318Z,5.42
2023-01-31T07:48:00.057Z,5.43
2023-01-31T07:49:02.695Z,5.49
2023-01-31T07:50:05.684Z,5.53
2023-01-31T07:51:08.810Z,5.53
2023-01-31T07:52:11.326Z,5.49
2023-01-31T07:53:13.848Z,5.52
2023-01-31T07:54:16.491Z,5.52
2023-01-31T07:55:19.396Z,5.54
2023-01-31T07:56:22.855Z,5.52
2023-01-31T07:57:25.614Z,5.54
2023-01-31T07:58:28.132Z,5.54
2023-01-31T07:59:30.748Z,5.54
2023-01-31T08:00:52.174Z,5.50
2023-01-31T08:02:13.263Z,5.46
2023-01-31T08:03:34.053Z,5.47
2023-01-31T08:04:36.826Z,5.43
2023-01-31T08:05:39.441Z,5.41
2023-01-31T08:06:43.615Z,5.38
2023-01-31T08:08:06.055Z,5.44
2023-01-31T08:09:08.940Z,5.44
2023-01-31T08:10:12.059Z,5.47
2023-01-31T08:11:14.701Z,5.43
2023-01-31T08:12:17.345Z,5.39
2023-01-31T08:13:19.741Z,5.44
2023-01-31T08:14:25.570Z,5.42
2023-01-31T08:15:30.665Z,5.38
2023-01-31T08:16:33.314Z,5.43
2023-01-31T08:17:35.830Z,5.47
2023-01-31T08:18:39.070Z,5.48
2023-01-31T08:19:41.836Z,5.49
2023-01-31T08:20:44.996Z,5.46
2023-01-31T08:21:47.602Z,5.46
2023-01-31T08:22:50.240Z,5.48
2023-01-31T08:23:52.884Z,5.52
2023-01-31T08:24:55.403Z,5.50
2023-01-31T08:26:04.200Z,5.58
2023-01-31T08:27:06.806Z,5.52
2023-01-31T08:28:10.173Z,5.53
2023-01-31T08:29:12.954Z,5.47
2023-01-31T08:30:15.703Z,5.49
2023-01-31T08:31:21.918Z,5.45
2023-01-31T08:32:24.658Z,5.46
2023-01-31T08:33:27.605Z,5.50
2023-01-31T08:34:30.584Z,5.52
2023-01-31T08:35:33.336Z,5.53
2023-01-31T08:36:36.976Z,5.52
2023-01-31T08:37:41.383Z,5.52
2023-01-31T08:38:45.214Z,5.54
2023-01-31T08:39:49.067Z,5.58
2023-01-31T08:40:52.310Z,5.60
2023-01-31T08:41:55.429Z,5.59
2023-01-31T08:43:00.831Z,5.63
2023-01-31T08:44:05.272Z,5.68
2023-01-31T08:45:08.635Z,5.68
2023-01-31T08:46:12.382Z,5.66
2023-01-31T08:47:15.477Z,5.63
2023-01-31T08:48:18.632Z,5.62
2023-01-31T08:49:21.729Z,5.62
2023-01-31T08:50:28.195Z,5.72
2023-01-31T08:51:31.682Z,5.70
2023-01-31T08:52:35.886Z,5.73
2023-01-31T08:53:41.333Z,5.77
2023-01-31T08:54:44.530Z,5.75
2023-01-31T08:55:47.781Z,5.71
2023-01-31T08:56:51.014Z,5.77
2023-01-31T08:57:59.664Z,5.78
2023-01-31T08:59:03.376Z,5.78
2023-01-31T09:00:07.971Z,5.83
2023-01-31T09:01:14.372Z,5.83
2023-01-31T09:02:17.784Z,5.83
2023-01-31T09:03:21.382Z,5.89
2023-01-31T09:04:24.747Z,5.83
2023-01-31T09:05:30.098Z,5.86
2023-01-31T09:06:33.537Z,5.86
2023-01-31T09:07:36.750Z,5.85
2023-01-31T09:08:39.992Z,5.78
2023-01-31T09:09:43.354Z,5.79
2023-01-31T09:10:56.195Z,5.84
2023-01-31T09:11:59.318Z,5.80
2023-01-31T09:13:02.318Z,5.84
2023-01-31T09:14:05.081Z,5.74
2023-01-31T09:15:08.565Z,5.77
2023-01-31T09:16:12.765Z,5.79
2023-01-31T09:17:15.553Z,5.75
2023-01-31T09:18:18.292Z,5.77
2023-01-31T09:19:22.852Z,5.78
2023-01-31T09:20:25.618Z,5.78
2023-01-31T09:21:28.655Z,5.82
2023-01-31T09:22:31.512Z,5.85
2023-01-31T09:23:34.552Z,5.90
2023-01-31T09:24:37.378Z,5.90
2023-01-31T09:25:47.016Z,5.87
2023-01-31T09:26:50.228Z,5.90
2023-01-31T09:27:53.752Z,5.90
2023-01-31T09:28:58.067Z,5.92
2023-01-31T09:30:00.608Z,5.95
2023-01-31T09:31:05.730Z,5.97
2023-01-31T09:32:08.281Z,5.95
2023-01-31T09:33:10.918Z,5.94
2023-01-31T09:34:15.213Z,5.96
2023-01-31T09:35:19.672Z,6.00
2023-01-31T09:36:25.034Z,5.97
2023-01-31T09:37:30.962Z,5.99
2023-01-31T09:38:34.264Z,6.01
2023-01-31T09:39:36.838Z,6.00
2023-01-31T09:40:41.038Z,6.01
2023-01-31T09:42:01.554Z,6.01
2023-01-31T09:43:05.282Z,5.99
2023-01-31T09:44:15.577Z,6.05
2023-01-31T09:45:32.016Z,6.08
2023-01-31T09:46:42.868Z,6.07
2023-01-31T09:47:50.890Z,6.06
2023-01-31T09:48:55.897Z,6.03
2023-01-31T09:50:03.225Z,6.07
2023-01-31T09:51:06.390Z,6.10
2023-01-31T09:52:11.283Z,6.11
2023-01-31T09:53:21.905Z,6.09
2023-01-31T09:54:38.668Z,6.12
2023-01-31T09:56:09.630Z,6.15
2023-01-31T09:57:12.155Z,6.09
2023-01-31T09:58:20.652Z,6.20
2023-01-31T09:59:30.805Z,6.14
2023-01-31T10:00:48.109Z,6.14
2023-01-31T10:02:22.931Z,6.21
2023-01-31T10:03:43.712Z,6.25
2023-01-31T10:05:13.590Z,6.24
2023-01-31T10:06:24.614Z,6.22
2023-01-31T10:07:36.744Z,6.22
2023-01-31T10:08:51.532Z,6.27
2023-01-31T10:10:24.260Z,6.29
2023-01-31T10:11:39.023Z,6.23
2023-01-31T10:12:48.629Z,6.26
2023-01-31T10:13:58.827Z,6.22
2023-01-31T10:15:06.862Z,6.23
2023-01-31T10:16:25.227Z,6.27
2023-01-31T10:17:59.549Z,6.33
2023-01-31T10:19:25.474Z,6.33
2023-01-31T10:20:47.549Z,6.38
2023-01-31T10:21:55.717Z,6.30
2023-01-31T10:23:05.680Z,6.29
2023-01-31T10:24:23.924Z,6.29
2023-01-31T10:25:30.312Z,6.32
2023-01-31T10:26:37.301Z,6.32
2023-01-31T10:27:46.362Z,6.35
2023-01-31T10:28:55.963Z,6.36
2023-01-31T10:30:00.895Z,6.32
2023-01-31T10:31:31.441Z,6.42
2023-01-31T10:32:37.848Z,6.39
2023-01-31T10:34:07.035Z,6.45
2023-01-31T10:35:15.661Z,6.43
2023-01-31T10:36:46.975Z,6.45
2023-01-31T10:37:55.873Z,6.41
2023-01-31T10:39:07.260Z,6.43
2023-01-31T10:40:17.225Z,6.42
2023-01-31T10:41:32.019Z,6.47
2023-01-31T10:42:37.759Z,6.46
2023-01-31T10:43:50.827Z,6.48
2023-01-31T10:44:59.358Z,6.48
2023-01-31T10:46:03.020Z,6.51
2023-01-31T10:47:15.800Z,6.52
2023-01-31T10:48:27.315Z,6.56
2023-01-31T10:49:31.300Z,6.57
2023-01-31T10:51:06.803Z,6.60
2023-01-31T10:52:38.846Z,6.65
2023-01-31T10:53:58.647Z,6.68
2023-01-31T10:55:38.968Z,6.67
2023-01-31T10:56:48.002Z,6.65
2023-01-31T10:57:52.178Z,6.53
2023-01-31T10:58:57.092Z,6.61
2023-01-31T11:00:00.337Z,6.56
2023-01-31T11:01:12.354Z,6.60
2023-01-31T11:02:24.141Z,6.64
2023-01-31T11:03:27.343Z,6.57
2023-01-31T11:04:52.423Z,6.52
2023-01-31T11:05:58.663Z,6.61
2023-01-31T11:07:03.586Z,6.56
2023-01-31T11:08:45.960Z,6.57
2023-01-31T11:09:54.950Z,6.61
2023-01-31T11:11:04.674Z,6.59
2023-01-31T11:12:09.151Z,6.59
2023-01-31T11:13:19.559Z,6.58
2023-01-31T11:14:23.038Z,6.57
2023-01-31T11:15:29.048Z,6.61
2023-01-31T11:16:38.728Z,6.57
2023-01-31T11:17:44.523Z,6.66
2023-01-31T11:18:51.005Z,6.69
2023-01-31T11:19:56.295Z,6.55
2023-01-31T11:21:00.970Z,6.58
2023-01-31T11:22:04.941Z,6.55
2023-01-31T11:23:07.756Z,6.57
2023-01-31T11:24:20.895Z,6.57
2023-01-31T11:25:26.182Z,6.58
2023-01-31T11:26:32.236Z,6.61
2023-01-31T11:27:40.944Z,6.65
2023-01-31T11:28:52.949Z,6.64
2023-01-31T11:29:59.953Z,6.66
2023-01-31T11:31:06.237Z,6.74
2023-01-31T11:32:19.467Z,6.76
2023-01-31T11:33:45.395Z,6.74
2023-01-31T11:35:28.714Z,6.62
2023-01-31T11:36:42.804Z,6.64
2023-01-31T11:38:22.446Z,6.63
2023-01-31T11:39:33.936Z,6.64
2023-01-31T11:40:41.095Z,6.56
2023-01-31T11:41:43.652Z,6.51
2023-01-31T11:42:51.805Z,6.60
2023-01-31T11:44:12.443Z,6.59
2023-01-31T11:45:21.293Z,6.61
2023-01-31T11:46:24.062Z,6.49
2023-01-31T11:47:42.088Z,6.57
2023-01-31T11:48:45.775Z,6.49
2023-01-31T11:49:50.720Z,6.56
2023-01-31T11:50:58.766Z,6.52
2023-01-31T11:52:22.868Z,6.61
2023-01-31T11:53:33.568Z,6.62
2023-01-31T11:54:36.214Z,6.55
2023-01-31T11:55:39.932Z,6.51
2023-01-31T11:56:42.693Z,6.50
2023-01-31T11:57:45.569Z,6.52
2023-01-31T11:58:54.109Z,6.53
2023-01-31T11:59:59.150Z,6.57
2023-01-31T12:01:07.294Z,6.62
2023-01-31T12:02:40.435Z,6.64
2023-01-31T12:04:01.951Z,6.60
2023-01-31T12:05:16.300Z,6.65
2023-01-31T12:06:38.760Z,6.61
2023-01-31T12:07:50.416Z,6.59
2023-01-31T12:08:58.194Z,6.62
2023-01-31T12:10:00.841Z,6.61
2023-01-31T12:11:27.704Z,6.68
2023-01-31T12:12:35.507Z,6.64
2023-01-31T12:13:49.328Z,6.68
2023-01-31T12:14:55.073Z,6.61
2023-01-31T12:16:06.121Z,6.74
2023-01-31T12:17:15.117Z,6.70
2023-01-31T12:18:42.016Z,6.75
2023-01-31T12:19:57.502Z,6.77
2023-01-31T12:21:13.189Z,6.74
2023-01-31T12:22:22.672Z,6.82
2023-01-31T12:24:06.740Z,6.81
2023-01-31T12:25:19.131Z,6.85
2023-01-31T12:26:32.538Z,6.79
2023-01-31T12:28:12.732Z,6.82
2023-01-31T12:29:42.961Z,6.86
2023-01-31T12:30:56.009Z,6.89
2023-01-31T12:32:24.485Z,6.90
2023-01-31T12:33:54.623Z,6.88
2023-01-31T12:35:38.172Z,6.97
2023-01-31T12:36:59.174Z,6.94
2023-01-31T12:38:16.816Z,6.99
2023-01-31T12:39:25.337Z,7.01
2023-01-31T12:41:01.699Z,7.02
2023-01-31T12:42:42.152Z,7.04
2023-01-31T12:44:25.468Z,7.14
2023-01-31T12:45:54.176Z,7.15
2023-01-31T12:47:34.495Z,7.17
2023-01-31T12:48:40.115Z,7.16
2023-01-31T12:50:04.601Z,7.24
2023-01-31T12:51:45.051Z,7.15
2023-01-31T12:53:09.288Z,7.23
2023-01-31T12:54:27.290Z,7.19
2023-01-31T12:55:42.296Z,7.17
2023-01-31T12:57:09.792Z,7.23
2023-01-31T12:58:42.165Z,7.20
2023-01-31T13:00:12.672Z,7.18
2023-01-31T13:01:34.186Z,7.18
2023-01-31T13:02:37.525Z,7.22
2023-01-31T13:04:07.878Z,7.20
2023-01-31T13:05:34.394Z,7.26
2023-01-31T13:06:43.140Z,7.20
2023-01-31T13:08:05.830Z,7.22
2023-01-31T13:09:29.115Z,7.25
2023-01-31T13:10:43.762Z,7.16
2023-01-31T13:12:06.072Z,7.16
2023-01-31T13:13:21.433Z,7.19
2023-01-31T13:14:29.954Z,7.18
2023-01-31T13:15:49.930Z,7.29
2023-01-31T13:17:03.075Z,7.22
2023-01-31T13:18:07.661Z,7.19
2023-01-31T13:19:24.685Z,7.23
2023-01-31T13:20:38.487Z,7.21
2023-01-31T13:21:47.009Z,7.17
2023-01-31T13:22:55.888Z,7.21
2023-01-31T13:24:14.009Z,7.25
2023-01-31T13:25:29.028Z,7.32
2023-01-31T13:26:38.636Z,7.25
2023-01-31T13:27:49.431Z,7.20
2023-01-31T13:29:00.820Z,7.21
2023-01-31T13:30:17.867Z,7.20
2023-01-31T13:31:25.042Z,7.19
2023-01-31T13:32:39.035Z,7.20
2023-01-31T13:33:48.104Z,7.28
2023-01-31T13:35:03.425Z,7.31
2023-01-31T13:36:12.231Z,7.38
2023-01-31T13:37:21.372Z,7.29
2023-01-31T13:38:31.438Z,7.32
2023-01-31T13:39:40.919Z,7.34
2023-01-31T13:40:53.205Z,7.36
2023-01-31T13:41:55.971Z,7.28
2023-01-31T13:43:08.686Z,7.28
2023-01-31T13:44:14.459Z,7.29
2023-01-31T13:45:28.685Z,7.31
2023-01-31T13:46:35.933Z,7.33
2023-01-31T13:47:48.792Z,7.29
2023-01-31T13:49:03.655Z,7.28
2023-01-31T13:50:18.285Z,7.33
2023-01-31T13:51:30.016Z,7.30
2023-01-31T13:52:42.135Z,7.34
2023-01-31T13:53:56.659Z,7.32
2023-01-31T13:55:04.256Z,7.33
2023-01-31T13:56:12.895Z,7.34
2023-01-31T13:57:30.270Z,7.33
2023-01-31T13:58:35.499Z,7.36
2023-01-31T13:59:38.787Z,7.33
2023-01-31T14:00:44.680Z,7.34
2023-01-31T14:01:50.266Z,7.39
2023-01-31T14:03:04.916Z,7.38
2023-01-31T14:04:14.872Z,7.38
2023-01-31T14:05:51.295Z,7.46
2023-01-31T14:06:57.055Z,7.37
2023-01-31T14:08:27.236Z,7.50
2023-01-31T14:09:32.461Z,7.47
2023-01-31T14:10:42.905Z,7.53
2023-01-31T14:11:45.545Z,7.46
2023-01-31T14:12:49.029Z,7.49
2023-01-31T14:14:21.780Z,7.61
2023-01-31T14:15:50.139Z,7.58
2023-01-31T14:16:53.352Z,7.50
2023-01-31T14:18:01.030Z,7.56
2023-01-31T14:19:24.696Z,7.57
2023-01-31T14:20:31.025Z,7.67
2023-01-31T14:21:36.548Z,7.62
2023-01-31T14:22:41.520Z,7.59
2023-01-31T14:23:47.324Z,7.65
2023-01-31T14:24:50.237Z,7.61
2023-01-31T14:25:52.764Z,7.62
2023-01-31T14:26:55.403Z,7.61
2023-01-31T14:27:57.797Z,7.63
2023-01-31T14:29:07.878Z,7.68
2023-01-31T14:30:19.169Z,7.68
2023-01-31T14:31:22.200Z,7.69
2023-01-31T14:32:57.682Z,7.73
2023-01-31T14:34:00.686Z,7.64
2023-01-31T14:35:15.207Z,7.79
2023-01-31T14:36:33.810Z,7.71
2023-01-31T14:37:44.853Z,7.77
2023-01-31T14:39:19.056Z,7.83
2023-01-31T14:40:29.377Z,7.91
2023-01-31T14:41:53.018Z,7.92
2023-01-31T14:43:07.658Z,7.95
2023-01-31T14:44:40.918Z,7.94
2023-01-31T14:46:26.759Z,7.99
2023-01-31T14:47:38.747Z,8.05
2023-01-31T14:49:00.114Z,8.05
2023-01-31T14:50:24.596Z,8.13
2023-01-31T14:52:02.634Z,8.17
2023-01-31T14:53:42.237Z,8.23
2023-01-31T14:55:03.374Z,8.25
2023-01-31T14:56:16.799Z,8.26
2023-01-31T14:57:28.100Z,8.25
2023-01-31T14:58:45.028Z,8.26
2023-01-31T15:00:14.771Z,8.31
2023-01-31T15:01:21.646Z,8.31
2023-01-31T15:02:36.981Z,8.33
2023-01-31T15:03:51.252Z,8.30
2023-01-31T15:05:20.398Z,8.35
2023-01-31T15:06:31.098Z,8.29
2023-01-31T15:07:34.465Z,8.25
2023-01-31T15:08:43.345Z,8.32
2023-01-31T15:09:48.383Z,8.26
2023-01-31T15:11:40.996Z,8.26
2023-01-31T15:13:01.833Z,8.27
2023-01-31T15:14:33.782Z,8.29
2023-01-31T15:15:40.113Z,8.30
2023-01-31T15:16:44.651Z,8.24
2023-01-31T15:17:48.760Z,8.30
2023-01-31T15:19:11.321Z,8.31